Time;durP1;ratioP1;P1;durP2;ratioP2;P2;SDS_P1;SDS_P2;PMS_P1;PMS_P2;Temp;Humidity;BMP_temperature;BMP_pressure;BME280_temperature;BME280_humidity;BME280_pressure;Samples;Min_cycle;Max_cycle;Signal;HPM_P1;HPM_P2
2021/06/28 00:01:41;;;;;;;6.60;5.93;;;;;;;;;;4973306;28;20043;-75
2021/06/28 00:04:07;;;;;;;7.30;5.88;;;;;;;;;;4973076;28;20109;-75
2021/06/28 00:06:33;;;;;;;9.15;6.53;;;;;;;;;;4971881;28;20119;-75
2021/06/28 00:08:59;;;;;;;8.07;6.78;;;;;;;;;;4952844;28;20131;-75
2021/06/28 00:11:26;;;;;;;10.05;6.78;;;;;;;;;;4953763;29;20034;-75
2021/06/28 00:13:54;;;;;;;7.85;6.72;;;;;;;;;;4953775;29;20074;-75
2021/06/28 00:16:23;;;;;;;8.32;6.80;;;;;;;;;;4953799;28;20027;-75
2021/06/28 00:18:49;;;;;;;11.18;6.47;;;;;;;;;;4969645;28;20583;-75
2021/06/28 00:21:15;;;;;;;7.00;6.20;;;;;;;;;;4972697;28;20113;-75
2021/06/28 00:23:41;;;;;;;7.05;6.35;;;;;;;;;;4983557;28;20126;-75
2021/06/28 00:26:07;;;;;;;8.40;5.97;;;;;;;;;;4991162;28;20038;-75
2021/06/28 00:28:33;;;;;;;9.75;6.50;;;;;;;;;;4962128;28;20043;-75
2021/06/28 00:30:59;;;;;;;6.97;6.18;;;;;;;;;;4953169;28;20042;-75
2021/06/28 00:33:25;;;;;;;8.68;6.53;;;;;;;;;;4953702;28;20078;-75
2021/06/28 00:35:52;;;;;;;13.85;6.65;;;;;;;;;;4953685;29;20030;-75
2021/06/28 00:38:18;;;;;;;7.25;6.35;;;;;;;;;;4965196;28;20027;-76
2021/06/28 00:40:45;;;;;;;9.23;6.55;;;;;;;;;;4986937;28;20031;-75
2021/06/28 00:43:12;;;;;;;7.53;6.53;;;;;;;;;;4972773;28;20491;-75
2021/06/28 00:45:39;;;;;;;6.90;6.20;;;;;;;;;;4972867;28;20102;-75
2021/06/28 00:48:10;;;;;;;7.38;6.40;;;;;;;;;;4962551;28;20114;-76
2021/06/28 00:50:37;;;;;;;6.53;5.75;;;;;;;;;;4952694;28;20039;-75
2021/06/28 00:53:05;;;;;;;9.25;6.43;;;;;;;;;;4969926;28;20077;-75
2021/06/28 00:55:32;;;;;;;9.32;6.85;;;;;;;;;;4995844;28;20118;-75
2021/06/28 00:57:58;;;;;;;11.55;6.57;;;;;;;;;;4996100;28;20023;-75
2021/06/28 01:00:24;;;;;;;8.25;6.25;;;;;;;;;;4982356;28;20472;-75
2021/06/28 01:02:50;;;;;;;8.98;6.18;;;;;;;;;;4976946;28;20034;-75
2021/06/28 01:05:18;;;;;;;8.07;6.43;;;;;;;;;;4976994;28;20555;-75
2021/06/28 01:07:44;;;;;;;7.65;6.85;;;;;;;;;;4991439;28;20143;-75
2021/06/28 01:10:11;;;;;;;7.18;6.45;;;;;;;;;;4974237;28;20250;-75
2021/06/28 01:12:37;;;;;;;7.95;7.10;;;;;;;;;;4975461;28;20032;-75
2021/06/28 01:15:04;;;;;;;12.52;6.70;;;;;;;;;;4957004;29;20035;-75
2021/06/28 01:17:30;;;;;;;7.75;5.97;;;;;;;;;;4956943;29;20027;-75
2021/06/28 01:20:01;;;;;;;8.82;6.63;;;;;;;;;;4956362;28;20035;-75
2021/06/28 01:22:29;;;;;;;7.72;6.57;;;;;;;;;;4957659;28;20023;-75
2021/06/28 01:24:56;;;;;;;10.07;7.28;;;;;;;;;;4975348;28;20054;-75
2021/06/28 01:27:22;;;;;;;9.30;6.63;;;;;;;;;;4974648;28;20129;-76
2021/06/28 01:29:48;;;;;;;7.50;6.70;;;;;;;;;;4975481;28;20070;-75
2021/06/28 01:32:14;;;;;;;7.10;6.35;;;;;;;;;;4975876;28;20022;-75
2021/06/28 01:34:40;;;;;;;9.65;6.43;;;;;;;;;;4971661;28;20053;-75
2021/06/28 01:37:32;;;;;;;8.57;6.55;;;;;;;;;;4971369;28;20492;-75
2021/06/28 01:40:01;;;;;;;7.57;6.30;;;;;;;;;;4954676;28;20496;-76
2021/06/28 01:42:27;;;;;;;8.23;6.10;;;;;;;;;;4956512;29;20042;-75
2021/06/28 01:44:54;;;;;;;8.25;6.40;;;;;;;;;;4962221;28;20424;-75
2021/06/28 01:47:20;;;;;;;8.25;6.20;;;;;;;;;;4975592;28;20045;-75
2021/06/28 01:49:47;;;;;;;7.05;6.35;;;;;;;;;;4975007;28;20562;-75
2021/06/28 01:52:13;;;;;;;7.53;6.72;;;;;;;;;;4975984;28;20026;-75
2021/06/28 01:54:39;;;;;;;8.07;6.03;;;;;;;;;;4994801;28;20022;-75
2021/06/28 01:57:06;;;;;;;6.72;5.57;;;;;;;;;;4986413;28;20027;-75
2021/06/28 01:59:33;;;;;;;9.63;6.07;;;;;;;;;;4974700;28;20045;-75
2021/06/28 02:02:00;;;;;;;7.68;5.88;;;;;;;;;;4975511;28;20113;-75
2021/06/28 02:04:27;;;;;;;7.13;5.70;;;;;;;;;;4974919;28;20521;-75
2021/06/28 02:06:53;;;;;;;7.65;5.65;;;;;;;;;;4975301;28;20492;-75
2021/06/28 02:09:19;;;;;;;10.63;5.25;;;;;;;;;;4966408;28;20518;-75
2021/06/28 02:11:45;;;;;;;8.57;5.63;;;;;;;;;;4955951;28;20075;-76
2021/06/28 02:14:11;;;;;;;7.32;5.50;;;;;;;;;;4956001;28;20396;-75
2021/06/28 02:16:37;;;;;;;7.68;5.07;;;;;;;;;;4970752;28;20511;-75
2021/06/28 02:19:04;;;;;;;5.30;4.75;;;;;;;;;;4953907;29;20028;-75
2021/06/28 02:21:30;;;;;;;7.75;5.18;;;;;;;;;;4962610;28;20030;-75
2021/06/28 02:23:56;;;;;;;8.20;6.53;;;;;;;;;;5003915;28;20529;-75
2021/06/28 02:26:22;;;;;;;7.90;6.38;;;;;;;;;;4993294;28;20027;-75
2021/06/28 02:28:49;;;;;;;7.90;6.20;;;;;;;;;;4994107;28;20084;-75
2021/06/28 02:31:17;;;;;;;8.77;6.25;;;;;;;;;;4993196;28;20049;-75
2021/06/28 02:33:43;;;;;;;9.20;6.68;;;;;;;;;;4981611;28;20021;-75
2021/06/28 02:36:09;;;;;;;8.75;6.00;;;;;;;;;;4974894;28;20506;-74
2021/06/28 02:38:36;;;;;;;6.88;6.18;;;;;;;;;;4974547;28;20057;-74
2021/06/28 02:41:03;;;;;;;9.60;5.60;;;;;;;;;;4972800;28;20031;-74
2021/06/28 02:43:29;;;;;;;9.15;6.13;;;;;;;;;;4974799;28;20027;-74
2021/06/28 02:45:55;;;;;;;7.15;5.40;;;;;;;;;;4964197;28;20023;-74
2021/06/28 02:48:21;;;;;;;8.98;5.80;;;;;;;;;;4969407;23;20047;-77
2021/06/28 02:50:47;;;;;;;8.70;5.82;;;;;;;;;;4954647;28;20090;-77
2021/06/28 02:53:16;;;;;;;6.68;5.45;;;;;;;;;;4968775;28;20026;-78
2021/06/28 02:55:42;;;;;;;8.60;5.72;;;;;;;;;;4955053;28;20027;-78
2021/06/28 02:58:08;;;;;;;6.32;5.38;;;;;;;;;;4964127;28;20041;-77
2021/06/28 03:00:34;;;;;;;8.27;5.75;;;;;;;;;;4973706;28;20038;-78
2021/06/28 03:03:00;;;;;;;7.50;5.38;;;;;;;;;;4974216;28;20034;-78
2021/06/28 03:05:27;;;;;;;7.00;4.90;;;;;;;;;;4973486;28;20404;-78
2021/06/28 03:07:53;;;;;;;7.25;5.93;;;;;;;;;;4981609;28;20027;-79
2021/06/28 03:10:19;;;;;;;6.57;5.55;;;;;;;;;;4981754;28;20094;-78
2021/06/28 03:12:45;;;;;;;11.77;6.60;;;;;;;;;;4978796;28;20053;-79
2021/06/28 03:15:13;;;;;;;9.98;6.03;;;;;;;;;;4974409;28;20046;-79
2021/06/28 03:17:40;;;;;;;9.23;6.45;;;;;;;;;;4973561;28;20023;-78
2021/06/28 03:20:07;;;;;;;10.98;5.57;;;;;;;;;;4974099;28;20034;-79
2021/06/28 03:22:33;;;;;;;6.43;5.70;;;;;;;;;;4977417;28;20030;-79
2021/06/28 03:24:59;;;;;;;7.07;5.25;;;;;;;;;;4993329;28;20027;-78
2021/06/28 03:27:25;;;;;;;9.98;5.35;;;;;;;;;;4993442;28;20030;-78
2021/06/28 03:29:53;;;;;;;8.85;5.50;;;;;;;;;;4992729;28;20046;-79
2021/06/28 03:32:19;;;;;;;8.43;5.43;;;;;;;;;;4987941;28;20488;-78
2021/06/28 03:34:45;;;;;;;6.07;5.00;;;;;;;;;;4973888;28;20480;-78
2021/06/28 03:37:11;;;;;;;6.40;5.53;;;;;;;;;;4973777;28;20094;-79
2021/06/28 03:39:38;;;;;;;8.48;5.90;;;;;;;;;;4973059;28;20031;-78
2021/06/28 03:42:04;;;;;;;9.18;5.72;;;;;;;;;;4974175;28;20045;-78
2021/06/28 03:44:30;;;;;;;7.53;5.30;;;;;;;;;;4973837;28;20081;-77
2021/06/28 03:46:56;;;;;;;8.18;4.65;;;;;;;;;;4973781;28;20062;-78
2021/06/28 03:49:22;;;;;;;7.25;5.10;;;;;;;;;;4988245;28;20043;-78
2021/06/28 03:51:48;;;;;;;7.47;4.70;;;;;;;;;;4973782;28;20030;-79
2021/06/28 03:54:14;;;;;;;6.95;4.93;;;;;;;;;;4989847;28;20030;-79
2021/06/28 03:56:40;;;;;;;8.77;5.00;;;;;;;;;;4985686;28;20038;-79
2021/06/28 03:59:06;;;;;;;8.73;4.88;;;;;;;;;;4972680;28;20459;-78
2021/06/28 04:01:32;;;;;;;12.40;4.97;;;;;;;;;;4972108;28;20125;-79
2021/06/28 04:03:58;;;;;;;10.52;5.25;;;;;;;;;;4973379;28;20030;-79
2021/06/28 04:06:25;;;;;;;7.55;4.78;;;;;;;;;;4973365;28;20026;-78
2021/06/28 04:08:51;;;;;;;6.38;4.95;;;;;;;;;;4987598;28;20030;-78
2021/06/28 04:11:18;;;;;;;12.70;5.60;;;;;;;;;;4972852;28;20026;-78
2021/06/28 04:13:44;;;;;;;12.27;5.40;;;;;;;;;;4973459;28;20019;-78
2021/06/28 04:16:10;;;;;;;10.48;5.13;;;;;;;;;;4973976;28;20035;-78
2021/06/28 04:18:36;;;;;;;10.25;5.28;;;;;;;;;;4972035;28;20101;-79
2021/06/28 04:21:02;;;;;;;8.68;5.80;;;;;;;;;;4971442;28;20056;-78
2021/06/28 04:23:28;;;;;;;8.02;5.28;;;;;;;;;;4983448;28;20030;-79
2021/06/28 04:25:54;;;;;;;6.35;5.28;;;;;;;;;;4992047;28;20110;-79
2021/06/28 04:28:20;;;;;;;6.18;5.57;;;;;;;;;;4977027;28;20050;-78
2021/06/28 04:30:47;;;;;;;8.98;4.90;;;;;;;;;;4972279;28;20031;-78
2021/06/28 04:33:13;;;;;;;5.97;5.38;;;;;;;;;;4972897;28;20069;-79
2021/06/28 04:35:39;;;;;;;13.27;6.32;;;;;;;;;;4973210;28;20027;-79
2021/06/28 04:38:05;;;;;;;9.43;5.72;;;;;;;;;;4972884;28;20447;-78
2021/06/28 04:40:31;;;;;;;7.78;5.28;;;;;;;;;;4972205;28;20114;-78
2021/06/28 04:42:58;;;;;;;8.85;4.50;;;;;;;;;;4972850;28;20491;-77
2021/06/28 04:45:25;;;;;;;7.63;4.57;;;;;;;;;;4972642;28;20066;-78
2021/06/28 04:47:51;;;;;;;7.82;4.35;;;;;;;;;;4965720;28;20035;-78
2021/06/28 04:50:21;;;;;;;7.72;4.80;;;;;;;;;;4962754;28;20670;-77
2021/06/28 04:52:47;;;;;;;5.82;3.92;;;;;;;;;;4968617;28;20023;-77
2021/06/28 04:55:14;;;;;;;8.98;4.40;;;;;;;;;;4972910;28;20086;-77
2021/06/28 04:57:40;;;;;;;7.75;4.40;;;;;;;;;;4954829;28;20524;-78
2021/06/28 05:00:07;;;;;;;5.57;4.50;;;;;;;;;;4951672;29;20035;-77
2021/06/28 05:02:33;;;;;;;6.15;4.90;;;;;;;;;;4972599;28;20034;-77
2021/06/28 05:04:59;;;;;;;6.72;4.93;;;;;;;;;;4972813;28;20399;-77
2021/06/28 05:07:25;;;;;;;10.07;5.50;;;;;;;;;;4972172;28;20055;-77
2021/06/28 05:09:51;;;;;;;6.00;4.47;;;;;;;;;;4952675;29;20086;-77
2021/06/28 05:12:18;;;;;;;5.22;4.68;;;;;;;;;;4955538;28;20118;-77
2021/06/28 05:14:44;;;;;;;4.97;4.32;;;;;;;;;;4952604;28;20098;-77
2021/06/28 05:17:10;;;;;;;7.65;4.10;;;;;;;;;;4953249;29;20023;-77
2021/06/28 05:19:37;;;;;;;4.70;3.80;;;;;;;;;;4970942;28;20484;-78
2021/06/28 05:22:03;;;;;;;5.22;3.80;;;;;;;;;;4972550;28;20058;-78
2021/06/28 05:24:29;;;;;;;9.30;4.25;;;;;;;;;;4986891;28;20808;-78
2021/06/28 05:26:55;;;;;;;7.50;4.38;;;;;;;;;;4972483;28;20035;-78
2021/06/28 05:29:21;;;;;;;5.25;4.05;;;;;;;;;;4971590;28;20106;-77
2021/06/28 05:31:47;;;;;;;6.97;3.75;;;;;;;;;;4972640;28;20138;-78
2021/06/28 05:34:13;;;;;;;7.88;4.40;;;;;;;;;;4972591;28;20488;-78
2021/06/28 05:36:39;;;;;;;5.70;3.65;;;;;;;;;;4972212;28;20106;-78
2021/06/28 05:39:06;;;;;;;8.25;3.65;;;;;;;;;;4968633;28;20400;-77
2021/06/28 05:41:32;;;;;;;6.10;3.47;;;;;;;;;;4967975;28;20034;-79
2021/06/28 05:43:59;;;;;;;5.60;3.95;;;;;;;;;;4972987;28;20041;-78
2021/06/28 05:46:25;;;;;;;6.50;3.10;;;;;;;;;;4971820;28;20038;-76
2021/06/28 05:48:51;;;;;;;8.63;3.05;;;;;;;;;;4972243;28;20062;-78
2021/06/28 05:51:19;;;;;;;4.72;2.90;;;;;;;;;;4973201;28;20039;-77
2021/06/28 05:53:45;;;;;;;4.18;2.63;;;;;;;;;;4966188;28;20027;-76
2021/06/28 05:56:11;;;;;;;4.75;2.80;;;;;;;;;;4971940;28;20027;-76
2021/06/28 05:58:37;;;;;;;6.22;2.85;;;;;;;;;;4973302;28;20031;-77
2021/06/28 06:01:03;;;;;;;2.70;2.33;;;;;;;;;;4972293;28;20599;-77
2021/06/28 06:03:29;;;;;;;2.78;2.45;;;;;;;;;;4959476;28;20035;-76
2021/06/28 06:05:55;;;;;;;4.90;2.50;;;;;;;;;;4956272;28;20050;-76
2021/06/28 06:08:25;;;;;;;5.15;2.30;;;;;;;;;;4958543;28;20101;-76
2021/06/28 06:10:52;;;;;;;4.25;2.40;;;;;;;;;;4966354;28;20028;-76
2021/06/28 06:13:18;;;;;;;3.28;2.20;;;;;;;;;;4962053;28;20031;-76
2021/06/28 06:15:44;;;;;;;4.53;2.28;;;;;;;;;;4964439;28;20110;-76
2021/06/28 06:18:10;;;;;;;3.70;2.35;;;;;;;;;;4955853;29;20032;-77
2021/06/28 06:20:36;;;;;;;3.13;2.20;;;;;;;;;;4987332;28;20408;-79
2021/06/28 06:23:02;;;;;;;3.72;2.38;;;;;;;;;;4968568;28;20036;-77
2021/06/28 06:25:28;;;;;;;3.65;2.30;;;;;;;;;;4955723;29;20031;-79
2021/06/28 06:27:54;;;;;;;5.00;2.83;;;;;;;;;;4955716;29;20031;-77
2021/06/28 06:30:20;;;;;;;5.97;2.00;;;;;;;;;;4954631;28;20046;-76
2021/06/28 06:32:47;;;;;;;3.55;1.90;;;;;;;;;;4955592;29;20027;-76
2021/06/28 06:35:13;;;;;;;4.82;1.80;;;;;;;;;;4955398;28;20023;-76
2021/06/28 06:37:39;;;;;;;2.95;2.20;;;;;;;;;;4959122;28;20364;-75
2021/06/28 06:40:06;;;;;;;2.80;1.55;;;;;;;;;;4970233;28;20061;-76
2021/06/28 06:42:32;;;;;;;3.92;1.92;;;;;;;;;;4973725;28;20782;-75
2021/06/28 06:44:58;;;;;;;6.90;2.10;;;;;;;;;;4974926;28;20102;-75
2021/06/28 06:47:24;;;;;;;4.97;2.35;;;;;;;;;;4974515;28;20066;-75
2021/06/28 06:49:51;;;;;;;1.95;1.60;;;;;;;;;;4974562;28;20062;-75
2021/06/28 06:52:17;;;;;;;3.08;1.85;;;;;;;;;;4975037;28;20031;-75
2021/06/28 06:54:43;;;;;;;2.20;2.00;;;;;;;;;;4977977;28;20019;-76
2021/06/28 06:57:10;;;;;;;3.33;1.70;;;;;;;;;;4967898;28;20028;-75
2021/06/28 06:59:36;;;;;;;2.97;1.63;;;;;;;;;;4966525;28;20079;-76
2021/06/28 07:02:02;;;;;;;2.47;1.92;;;;;;;;;;4959204;28;20038;-75
2021/06/28 07:04:29;;;;;;;4.93;1.90;;;;;;;;;;4962133;28;20058;-75
2021/06/28 07:06:54;;;;;;;2.90;1.77;;;;;;;;;;4978196;28;20031;-75
2021/06/28 07:09:21;;;;;;;4.47;2.40;;;;;;;;;;4973944;28;20506;-75
2021/06/28 07:11:46;;;;;;;3.97;1.85;;;;;;;;;;4986809;28;20027;-75
2021/06/28 07:14:13;;;;;;;4.07;1.80;;;;;;;;;;4955010;28;20038;-76
2021/06/28 07:16:39;;;;;;;3.17;1.75;;;;;;;;;;4965129;28;20027;-75
2021/06/28 07:19:05;;;;;;;3.63;1.65;;;;;;;;;;4972814;28;20039;-75
2021/06/28 07:21:34;;;;;;;4.18;2.15;;;;;;;;;;4973762;28;20038;-75
2021/06/28 07:24:00;;;;;;;2.63;1.83;;;;;;;;;;4958642;28;20472;-75
2021/06/28 07:26:26;;;;;;;3.63;2.00;;;;;;;;;;4952575;28;20038;-76
2021/06/28 07:28:53;;;;;;;3.30;2.20;;;;;;;;;;4954001;28;20023;-76
2021/06/28 07:31:20;;;;;;;3.53;1.90;;;;;;;;;;4962123;28;20041;-76
2021/06/28 07:33:46;;;;;;;5.18;1.80;;;;;;;;;;4962596;28;20031;-76
2021/06/28 07:36:12;;;;;;;5.22;1.80;;;;;;;;;;4954459;29;20019;-76
2021/06/28 07:38:39;;;;;;;5.43;1.67;;;;;;;;;;4954222;28;20031;-75
2021/06/28 07:41:05;;;;;;;2.80;1.75;;;;;;;;;;4967642;28;20081;-75
2021/06/28 07:43:32;;;;;;;1.90;1.70;;;;;;;;;;4973554;28;20037;-76
2021/06/28 07:45:58;;;;;;;4.45;1.80;;;;;;;;;;4973666;28;20034;-76
2021/06/28 07:48:24;;;;;;;4.15;1.80;;;;;;;;;;4968572;28;20034;-76
2021/06/28 07:50:50;;;;;;;2.42;1.75;;;;;;;;;;4963667;28;20035;-74
2021/06/28 07:53:17;;;;;;;3.60;1.60;;;;;;;;;;4964959;28;20612;-75
2021/06/28 07:55:43;;;;;;;4.80;2.30;;;;;;;;;;4953826;28;20617;-76
2021/06/28 07:58:10;;;;;;;5.78;2.13;;;;;;;;;;4952791;29;20024;-76
2021/06/28 08:00:36;;;;;;;6.78;1.90;;;;;;;;;;4954098;28;20027;-75
2021/06/28 08:03:03;;;;;;;2.40;1.67;;;;;;;;;;4961458;28;20492;-75
2021/06/28 08:05:29;;;;;;;4.63;1.38;;;;;;;;;;4973117;28;20031;-76
2021/06/28 08:07:55;;;;;;;5.63;2.63;;;;;;;;;;4971519;28;20027;-75
2021/06/28 08:10:21;;;;;;;4.10;1.90;;;;;;;;;;4963827;28;20102;-76
2021/06/28 08:12:48;;;;;;;8.02;1.90;;;;;;;;;;4969770;28;20034;-75
2021/06/28 08:15:15;;;;;;;3.75;1.83;;;;;;;;;;4972240;28;20027;-75
2021/06/28 08:17:42;;;;;;;3.97;1.67;;;;;;;;;;4953643;28;20054;-76
2021/06/28 08:20:08;;;;;;;1.58;1.48;;;;;;;;;;4953338;28;20034;-76
2021/06/28 08:22:35;;;;;;;3.28;1.60;;;;;;;;;;4956782;28;20027;-75
2021/06/28 08:25:01;;;;;;;1.98;1.63;;;;;;;;;;4972907;28;20031;-76
2021/06/28 08:27:27;;;;;;;2.65;1.50;;;;;;;;;;4961838;28;20035;-76
2021/06/28 08:29:53;;;;;;;3.33;1.63;;;;;;;;;;4952803;29;20035;-76
2021/06/28 08:32:19;;;;;;;2.42;1.70;;;;;;;;;;4954932;28;20031;-76
2021/06/28 08:34:45;;;;;;;4.10;1.92;;;;;;;;;;4953676;28;20035;-75
2021/06/28 08:37:11;;;;;;;3.30;2.13;;;;;;;;;;4953684;28;20038;-76
2021/06/28 08:39:37;;;;;;;4.82;2.42;;;;;;;;;;4953306;28;20054;-76
2021/06/28 08:42:06;;;;;;;3.70;2.40;;;;;;;;;;4965293;28;20023;-76
2021/06/28 08:44:32;;;;;;;3.40;1.55;;;;;;;;;;4972523;28;20031;-76
2021/06/28 08:46:59;;;;;;;3.35;1.77;;;;;;;;;;4972511;28;20045;-76
2021/06/28 08:49:25;;;;;;;2.88;1.92;;;;;;;;;;4956821;28;20035;-76
2021/06/28 08:51:51;;;;;;;3.08;1.50;;;;;;;;;;4953115;29;20075;-76
2021/06/28 08:54:17;;;;;;;1.98;1.40;;;;;;;;;;4970043;28;20031;-75
2021/06/28 08:56:45;;;;;;;2.13;1.50;;;;;;;;;;4972090;28;20031;-75
2021/06/28 08:59:11;;;;;;;3.28;1.63;;;;;;;;;;4970433;28;20031;-76
2021/06/28 09:01:38;;;;;;;3.22;1.10;;;;;;;;;;4969565;28;20031;-75
2021/06/28 09:04:05;;;;;;;1.38;1.10;;;;;;;;;;4963721;28;20399;-75
2021/06/28 09:06:32;;;;;;;1.83;1.33;;;;;;;;;;4962317;28;20038;-75
2021/06/28 09:09:04;;;;;;;5.70;1.30;;;;;;;;;;4959509;28;20436;-76
2021/06/28 09:11:34;;;;;;;2.30;1.42;;;;;;;;;;4952572;28;20396;-76
2021/06/28 09:14:03;;;;;;;2.67;1.60;;;;;;;;;;4965281;28;20031;-76
2021/06/28 09:16:30;;;;;;;3.08;1.55;;;;;;;;;;4977200;28;20018;-76
2021/06/28 09:19:03;;;;;;;9.45;1.70;;;;;;;;;;4975664;28;20571;-76
2021/06/28 09:21:32;;;;;;;4.05;1.40;;;;;;;;;;4976092;28;20034;-75
2021/06/28 09:23:59;;;;;;;4.53;1.40;;;;;;;;;;4990480;28;20038;-76
2021/06/28 09:26:28;;;;;;;2.13;1.13;;;;;;;;;;4985906;28;20027;-76
2021/06/28 09:28:55;;;;;;;1.85;1.30;;;;;;;;;;4975106;28;20038;-76
2021/06/28 09:31:32;;;;;;;1.77;1.20;;;;;;;;;;4975131;28;20046;-76
2021/06/28 09:34:07;;;;;;;12.65;1.83;;;;;;;;;;4979606;28;20190;-76
2021/06/28 09:36:42;;;;;;;6.25;1.55;;;;;;;;;;4956476;28;20030;-76
2021/06/28 09:39:25;;;;;;;3.08;1.40;;;;;;;;;;4956155;28;20110;-76
2021/06/28 09:41:58;;;;;;;5.63;1.80;;;;;;;;;;4956295;28;20082;-76
2021/06/28 09:44:25;;;;;;;4.47;1.75;;;;;;;;;;4956452;28;20031;-76
2021/06/28 09:47:04;;;;;;;2.25;1.65;;;;;;;;;;4956322;28;20106;-75
2021/06/28 09:49:30;;;;;;;1.88;1.40;;;;;;;;;;4956897;28;20035;-76
2021/06/28 09:51:56;;;;;;;3.60;1.75;;;;;;;;;;4956586;29;20054;-76
2021/06/28 09:54:22;;;;;;;5.47;1.75;;;;;;;;;;4973922;28;20038;-76
2021/06/28 09:56:51;;;;;;;4.43;1.30;;;;;;;;;;4975359;28;20042;-77
2021/06/28 09:59:23;;;;;;;2.13;1.30;;;;;;;;;;4975161;28;20034;-76
2021/06/28 10:01:51;;;;;;;4.72;1.42;;;;;;;;;;4975766;28;20053;-77
2021/06/28 10:07:26;;;;;;;3.28;1.65;;;;;;;;;;4954288;28;20518;-77
2021/06/28 10:10:11;;;;;;;2.45;1.70;;;;;;;;;;4975146;28;20033;-78
2021/06/28 10:12:38;;;;;;;4.15;1.60;;;;;;;;;;4970263;28;20030;-78
2021/06/28 10:15:05;;;;;;;16.77;2.03;;;;;;;;;;4976236;28;20034;-77
2021/06/28 10:17:31;;;;;;;4.00;1.73;;;;;;;;;;4975559;28;20042;-78
2021/06/28 10:19:57;;;;;;;2.05;1.50;;;;;;;;;;4972900;28;20023;-78
2021/06/28 10:22:23;;;;;;;10.85;2.05;;;;;;;;;;4975671;28;20023;-78
2021/06/28 10:24:49;;;;;;;3.17;1.50;;;;;;;;;;4971049;28;20416;-78
2021/06/28 10:27:15;;;;;;;4.20;1.90;;;;;;;;;;4961661;28;20027;-77
2021/06/28 10:29:41;;;;;;;6.90;1.70;;;;;;;;;;4955623;29;20028;-78
2021/06/28 10:32:09;;;;;;;2.25;1.38;;;;;;;;;;4960270;28;20098;-78
2021/06/28 10:34:35;;;;;;;3.60;1.90;;;;;;;;;;4961657;28;20485;-77
2021/06/28 10:37:03;;;;;;;3.45;1.65;;;;;;;;;;4964980;29;20031;-77
2021/06/28 10:39:31;;;;;;;2.25;1.10;;;;;;;;;;4964580;29;20055;-77
2021/06/28 10:41:58;;;;;;;2.05;1.70;;;;;;;;;;4965495;28;20043;-76
2021/06/28 10:44:25;;;;;;;2.70;1.88;;;;;;;;;;4973125;28;20460;-77
2021/06/28 10:46:58;;;;;;;2.60;1.60;;;;;;;;;;4986363;28;20035;-76
2021/06/28 10:49:43;;;;;;;5.75;1.63;;;;;;;;;;4974780;28;20031;-76
2021/06/28 10:52:09;;;;;;;2.53;1.42;;;;;;;;;;4969276;28;20022;-76
2021/06/28 10:54:36;;;;;;;2.80;1.52;;;;;;;;;;4964462;28;20026;-76
2021/06/28 10:57:03;;;;;;;5.40;2.28;;;;;;;;;;4968234;28;20027;-76
2021/06/28 10:59:31;;;;;;;3.35;1.60;;;;;;;;;;4962537;28;20130;-76
2021/06/28 11:01:56;;;;;;;4.60;1.80;;;;;;;;;;4966066;28;20035;-76
2021/06/28 11:04:30;;;;;;;4.72;2.10;;;;;;;;;;4966736;28;20035;-77
2021/06/28 11:07:05;;;;;;;3.17;2.00;;;;;;;;;;4966799;28;20039;-77
2021/06/28 11:09:40;;;;;;;2.40;1.75;;;;;;;;;;4955396;29;20042;-77
2021/06/28 11:12:06;;;;;;;2.88;1.70;;;;;;;;;;4960803;28;20040;-76
2021/06/28 11:14:32;;;;;;;3.55;1.70;;;;;;;;;;4954761;28;20078;-77
2021/06/28 11:17:06;;;;;;;4.78;1.95;;;;;;;;;;4968900;28;20058;-77
2021/06/28 11:22:31;;;;;;;3.15;1.60;;;;;;;;;;4972189;28;20023;-77
2021/06/28 11:25:20;;;;;;;4.95;1.73;;;;;;;;;;4975060;28;20106;-76
2021/06/28 11:27:46;;;;;;;1.90;1.80;;;;;;;;;;4950322;29;20031;-78
2021/06/28 11:30:12;;;;;;;4.47;1.80;;;;;;;;;;4956445;29;20046;-77
2021/06/28 11:32:40;;;;;;;3.03;1.83;;;;;;;;;;4974558;28;20121;-77
2021/06/28 11:35:06;;;;;;;2.60;1.80;;;;;;;;;;4974079;28;20089;-77
2021/06/28 11:37:34;;;;;;;4.32;1.88;;;;;;;;;;4973090;28;20029;-77
2021/06/28 11:40:02;;;;;;;4.03;1.65;;;;;;;;;;4973556;28;20051;-77
2021/06/28 11:42:37;;;;;;;3.50;1.75;;;;;;;;;;4973770;28;20042;-78
2021/06/28 11:45:11;;;;;;;2.70;1.48;;;;;;;;;;4973293;28;20384;-77
2021/06/28 11:47:50;;;;;;;2.95;1.80;;;;;;;;;;4973435;28;20035;-78
2021/06/28 11:50:25;;;;;;;3.30;1.75;;;;;;;;;;4970992;28;20403;-78
2021/06/28 11:52:51;;;;;;;1.70;1.50;;;;;;;;;;4979687;28;20443;-78
2021/06/28 11:55:17;;;;;;;4.65;1.98;;;;;;;;;;4995049;28;20030;-78
2021/06/28 11:57:50;;;;;;;2.03;1.60;;;;;;;;;;4974891;28;20054;-77
2021/06/28 12:00:17;;;;;;;1.80;1.70;;;;;;;;;;4973542;28;20031;-78
2021/06/28 12:02:43;;;;;;;2.08;1.70;;;;;;;;;;4974344;28;20086;-77
2021/06/28 12:05:10;;;;;;;2.30;1.50;;;;;;;;;;4974671;28;20031;-78
2021/06/28 12:07:37;;;;;;;2.55;1.70;;;;;;;;;;4974108;28;20114;-78
2021/06/28 12:10:03;;;;;;;2.45;1.50;;;;;;;;;;4973146;28;20082;-78
2021/06/28 12:12:29;;;;;;;2.70;1.48;;;;;;;;;;4961894;28;20078;-78
2021/06/28 12:14:56;;;;;;;6.10;2.00;;;27.00;99.90;;;;;;4954726;28;20039;-78
2021/06/28 12:17:32;;;;;;;4.55;1.67;;;37.40;65.40;;;;;;4967848;28;20547;-78
2021/06/28 12:20:05;;;;;;;3.03;1.70;;;37.50;63.90;;;;;;4971164;28;20096;-78
2021/06/28 12:22:39;;;;;;;2.33;1.42;;;37.60;62.50;;;;;;4987704;28;20368;-78
2021/06/28 12:25:08;;;;;;;6.65;2.15;;;37.80;63.00;;;;;;4973341;28;20102;-78
2021/06/28 12:27:36;;;;;;;1.92;1.60;;;38.00;62.90;;;;;;4987579;28;20058;-78
2021/06/28 12:30:25;;;;;;;4.07;1.63;;;38.50;61.80;;;;;;4972652;28;20114;-78
2021/06/28 12:32:56;;;;;;;3.38;1.45;;;37.90;61.20;;;;;;4973151;28;20043;-77
2021/06/28 12:35:24;;;;;;;3.03;1.60;;;37.40;61.70;;;;;;4956514;28;20055;-77
2021/06/28 12:37:57;;;;;;;4.03;1.70;;;37.40;62.50;;;;;;4963044;28;20030;-78
2021/06/28 12:43:03;;;;;;;1.77;1.48;;;37.70;62.40;;;;;;4975708;28;20019;-77
2021/06/28 12:45:31;;;;;;;5.18;1.83;;;37.80;60.50;;;;;;4958193;28;20023;-77
2021/06/28 12:47:58;;;;;;;2.55;1.80;;;37.40;62.30;;;;;;4959217;28;20031;-79
2021/06/28 12:50:28;;;;;;;3.08;1.90;;;37.10;61.00;;;;;;4957467;28;20027;-78
2021/06/28 12:52:54;;;;;;;6.07;2.33;;;37.00;62.60;;;;;;4964230;28;20041;-77
2021/06/28 12:55:24;;;;;;;2.85;1.95;;;37.00;62.80;;;;;;4992938;28;20031;-79
2021/06/28 12:58:00;;;;;;;3.22;1.80;;;38.00;61.80;;;;;;4958275;28;20024;-78
2021/06/28 13:00:28;;;;;;;4.43;1.60;;;38.60;59.70;;;;;;4958526;28;20032;-77
2021/06/28 13:02:58;;;;;;;2.45;1.80;;;39.00;59.40;;;;;;4991686;28;20547;-77
2021/06/28 13:05:31;;;;;;;6.72;1.90;;;39.00;59.20;;;;;;4976378;28;20031;-78
2021/06/28 13:08:19;;;;;;;2.20;1.55;;;39.50;58.90;;;;;;4976629;28;20027;-76
2021/06/28 13:10:55;;;;;;;2.10;1.90;;;39.50;57.00;;;;;;4975794;28;20038;-77
2021/06/28 13:13:31;;;;;;;1.80;1.50;;;39.20;57.90;;;;;;4976511;28;20094;-77
2021/06/28 13:16:16;;;;;;;2.47;1.55;;;38.30;57.90;;;;;;4976040;28;20021;-78
2021/06/28 13:19:00;;;;;;;1.90;1.60;;;39.00;58.00;;;;;;4976304;28;20019;-78
2021/06/28 13:21:28;;;;;;;4.47;2.00;;;39.50;56.50;;;;;;4976204;28;20034;-78
2021/06/28 13:23:55;;;;;;;3.95;1.80;;;40.50;57.90;;;;;;4976295;28;20030;-77
2021/06/28 13:26:39;;;;;;;2.40;1.55;;;41.40;54.10;;;;;;4967845;28;20027;-77
2021/06/28 13:29:08;;;;;;;2.25;1.40;;;41.50;52.80;;;;;;4957309;28;20066;-77
2021/06/28 13:31:54;;;;;;;4.18;1.45;;;41.90;52.90;;;;;;4956864;28;20027;-78
2021/06/28 13:34:20;;;;;;;3.22;1.70;;;42.10;53.00;;;;;;4956927;29;20027;-77
2021/06/28 13:37:14;;;;;;;7.50;2.15;;;42.60;53.00;;;;;;4956732;28;20031;-77
2021/06/28 13:39:43;;;;;;;2.05;1.55;;;42.40;51.50;;;;;;4955053;29;20019;-76
2021/06/28 13:42:35;;;;;;;3.95;1.50;;;42.50;51.90;;;;;;4957120;28;20032;-77
2021/06/28 13:45:03;;;;;;;4.53;1.45;;;41.70;51.30;;;;;;4975498;28;20031;-77
2021/06/28 13:47:29;;;;;;;5.75;1.40;;;41.20;52.40;;;;;;4975797;28;20507;-76
2021/06/28 13:49:56;;;;;;;1.90;1.40;;;41.40;52.50;;;;;;4975382;28;20031;-77
2021/06/28 13:52:22;;;;;;;2.03;1.50;;;41.00;51.00;;;;;;4973882;28;20031;-76
2021/06/28 13:54:48;;;;;;;5.72;1.90;;;41.30;52.00;;;;;;4956775;29;20535;-77
2021/06/28 13:57:13;;;;;;;2.53;1.88;;;41.50;52.20;;;;;;4956184;29;20114;-77
2021/06/28 13:59:39;;;;;;;2.33;1.55;;;41.00;51.70;;;;;;4955229;28;20059;-76
2021/06/28 14:02:06;;;;;;;6.57;2.40;;;41.30;52.50;;;;;;4956306;29;20042;-77
2021/06/28 14:04:32;;;;;;;4.07;1.70;;;41.30;52.70;;;;;;4956184;29;20028;-77
2021/06/28 14:06:57;;;;;;;2.90;1.70;;;41.40;52.20;;;;;;4960269;28;20031;-78
2021/06/28 14:09:23;;;;;;;1.85;1.30;;;41.80;51.90;;;;;;4968812;28;20073;-77
2021/06/28 14:11:49;;;;;;;3.75;1.40;;;42.40;50.00;;;;;;4966647;28;20034;-77
2021/06/28 14:14:15;;;;;;;9.85;2.03;;;42.20;50.30;;;;;;4967826;28;20027;-77
2021/06/28 14:16:41;;;;;;;6.53;1.80;;;42.30;53.10;;;;;;4975075;28;20037;-77
2021/06/28 14:19:07;;;;;;;4.65;1.85;;;42.80;51.00;;;;;;4974500;28;20507;-77
2021/06/28 14:21:33;;;;;;;3.00;1.40;;;42.80;50.40;;;;;;4990164;28;20035;-77
2021/06/28 14:23:59;;;;;;;4.05;1.58;;;42.50;50.40;;;;;;4990058;28;20027;-77
2021/06/28 14:26:24;;;;;;;3.05;1.60;;;41.90;51.50;;;;;;4994300;28;20026;-78
2021/06/28 14:28:50;;;;;;;3.72;2.30;;;41.70;51.20;;;;;;4978440;28;20415;-77
2021/06/28 14:31:16;;;;;;;9.40;2.28;;;41.10;50.80;;;;;;4974766;28;20031;-77
2021/06/28 14:33:42;;;;;;;2.05;1.70;;;40.60;52.30;;;;;;4958661;28;20027;-76